createdAt,value
2017-09-11T00:01:40.147Z,9.93
2017-09-11T00:04:07.535Z,9.50
2017-09-11T00:06:35.040Z,10.23
2017-09-11T00:09:02.425Z,9.93
2017-09-11T00:11:29.818Z,10.13
2017-09-11T00:13:57.218Z,10.60
2017-09-11T00:16:24.603Z,9.93
2017-09-11T00:18:52.146Z,10.83
2017-09-11T00:21:19.531Z,9.87
2017-09-11T00:23:46.927Z,10.03
2017-09-11T00:26:14.326Z,9.70
2017-09-11T00:28:41.715Z,9.83
2017-09-11T00:31:09.142Z,9.60
2017-09-11T00:33:36.533Z,9.80
2017-09-11T00:36:03.914Z,9.10
2017-09-11T00:38:31.362Z,9.90
2017-09-11T00:40:58.730Z,9.70
2017-09-11T00:43:26.643Z,9.80
2017-09-11T00:45:54.022Z,9.23
2017-09-11T00:48:21.411Z,9.30
2017-09-11T00:50:48.794Z,9.47
2017-09-11T00:53:16.234Z,10.07
2017-09-11T00:55:43.650Z,9.50
2017-09-11T00:58:11.035Z,9.23
2017-09-11T01:00:38.418Z,9.37
2017-09-11T01:03:05.818Z,9.50
2017-09-11T01:05:33.197Z,9.20
2017-09-11T01:08:00.735Z,9.33
2017-09-11T01:10:28.118Z,9.40
2017-09-11T01:12:55.514Z,10.13
2017-09-11T01:15:22.914Z,9.57
2017-09-11T01:17:50.298Z,8.97
2017-09-11T01:20:17.694Z,9.40
2017-09-11T01:22:45.079Z,8.87
2017-09-11T01:25:12.479Z,9.47
2017-09-11T01:27:39.874Z,9.73
2017-09-11T01:30:07.263Z,9.47
2017-09-11T01:32:34.678Z,9.30
2017-09-11T01:35:02.062Z,9.37
2017-09-11T01:37:29.455Z,9.33
2017-09-11T01:39:57.028Z,9.63
2017-09-11T01:42:24.411Z,9.40
2017-09-11T01:44:51.822Z,9.47
2017-09-11T01:47:19.216Z,9.53
2017-09-11T01:49:46.606Z,9.83
2017-09-11T01:52:13.991Z,9.13
2017-09-11T01:54:41.388Z,9.50
2017-09-11T01:57:08.918Z,9.73
2017-09-11T01:59:36.306Z,9.63
2017-09-11T02:02:03.694Z,9.27
2017-09-11T02:04:31.094Z,9.50
2017-09-11T02:06:58.471Z,9.10
2017-09-11T02:09:25.874Z,9.90
2017-09-11T02:11:53.260Z,9.57
2017-09-11T02:14:20.639Z,8.97
2017-09-11T02:16:48.039Z,8.97
2017-09-11T02:19:15.438Z,9.50
2017-09-11T02:21:42.983Z,8.73
2017-09-11T02:24:10.376Z,8.17
2017-09-11T02:26:37.779Z,8.60
2017-09-11T02:29:05.170Z,9.17
2017-09-11T02:31:32.565Z,9.00
2017-09-11T02:34:00.098Z,8.70
2017-09-11T02:36:27.483Z,8.20
2017-09-11T02:38:54.867Z,8.10
2017-09-11T02:41:22.255Z,7.83
2017-09-11T02:43:49.637Z,7.90
2017-09-11T02:46:17.038Z,8.20
2017-09-11T02:48:44.430Z,8.00
2017-09-11T02:51:12.182Z,8.50
2017-09-11T02:53:39.586Z,7.70
2017-09-11T02:56:06.986Z,8.07
2017-09-11T02:58:34.375Z,7.70
2017-09-11T03:01:01.758Z,7.37
2017-09-11T03:03:29.303Z,7.50
2017-09-11T03:05:56.682Z,7.60
2017-09-11T03:08:24.063Z,7.60
2017-09-11T03:10:51.449Z,7.00
2017-09-11T03:13:18.834Z,7.53
2017-09-11T03:15:46.471Z,7.53
2017-09-11T03:18:13.855Z,7.80
2017-09-11T03:20:41.240Z,7.43
2017-09-11T03:23:08.631Z,8.87
2017-09-11T03:25:36.010Z,7.53
2017-09-11T03:28:03.551Z,7.50
2017-09-11T03:30:30.927Z,7.00
2017-09-11T03:32:58.313Z,7.50
2017-09-11T03:35:25.697Z,7.20
2017-09-11T03:37:53.196Z,7.27
2017-09-11T03:40:20.747Z,7.40
2017-09-11T03:42:48.127Z,7.40
2017-09-11T03:45:15.527Z,7.20
2017-09-11T03:47:42.918Z,6.97
2017-09-11T03:50:10.310Z,6.83
2017-09-11T03:52:37.723Z,7.10
2017-09-11T03:55:05.107Z,6.70
2017-09-11T03:57:32.489Z,7.23
2017-09-11T03:59:59.875Z,6.20
2017-09-11T04:02:27.259Z,6.30
2017-09-11T04:04:54.664Z,7.00
2017-09-11T04:07:22.046Z,6.00
2017-09-11T04:09:49.431Z,6.60
2017-09-11T04:12:16.826Z,6.10
2017-09-11T04:14:44.211Z,5.93
2017-09-11T04:17:11.750Z,6.63
2017-09-11T04:19:49.173Z,6.00
2017-09-11T04:22:16.558Z,6.03
2017-09-11T04:24:43.946Z,6.10
2017-09-11T04:27:11.330Z,6.47
2017-09-11T04:29:38.724Z,6.10
2017-09-11T04:32:06.102Z,6.27
2017-09-11T04:34:33.647Z,5.70
2017-09-11T04:37:01.038Z,6.37
2017-09-11T04:39:28.423Z,5.80
2017-09-11T04:41:55.806Z,6.07
2017-09-11T04:44:23.191Z,5.63
2017-09-11T04:46:50.610Z,6.17
2017-09-11T04:49:17.998Z,5.77
2017-09-11T04:51:45.388Z,6.10
2017-09-11T04:54:12.780Z,5.70
2017-09-11T04:56:40.157Z,5.90
2017-09-11T04:59:07.546Z,5.77
2017-09-11T05:01:35.889Z,6.27
2017-09-11T05:04:03.346Z,6.60
2017-09-11T05:06:30.726Z,6.67
2017-09-11T05:08:58.125Z,7.20
2017-09-11T05:11:25.515Z,6.43
2017-09-11T05:13:53.059Z,6.50
2017-09-11T05:16:20.442Z,6.60
2017-09-11T05:18:47.831Z,7.10
2017-09-11T05:21:15.211Z,6.90
2017-09-11T05:23:42.607Z,6.37
2017-09-11T05:26:10.392Z,6.50
2017-09-11T05:28:37.769Z,7.27
2017-09-11T05:31:05.155Z,7.30
2017-09-11T05:33:32.577Z,7.10
2017-09-11T05:35:59.926Z,7.60
2017-09-11T05:38:27.462Z,6.93
2017-09-11T05:40:54.854Z,7.37
2017-09-11T05:43:22.233Z,6.50
2017-09-11T05:45:49.627Z,6.10
2017-09-11T05:48:17.012Z,6.63
2017-09-11T05:50:44.432Z,6.27
2017-09-11T05:53:11.814Z,6.27
2017-09-11T05:55:39.198Z,6.20
2017-09-11T05:58:06.587Z,6.67
2017-09-11T06:00:33.970Z,6.17
2017-09-11T06:03:01.832Z,6.87
2017-09-11T06:05:29.216Z,6.50
2017-09-11T06:07:56.595Z,6.00
2017-09-11T06:10:23.986Z,6.13
2017-09-11T06:12:51.366Z,6.40
2017-09-11T06:15:18.898Z,6.60
2017-09-11T06:17:46.282Z,6.93
2017-09-11T06:20:13.666Z,6.97
2017-09-11T06:22:41.055Z,7.03
2017-09-11T06:25:08.443Z,7.20
2017-09-11T06:27:35.864Z,6.77
2017-09-11T06:30:03.242Z,7.43
2017-09-11T06:32:30.633Z,7.20
2017-09-11T06:34:58.019Z,6.90
2017-09-11T06:37:25.402Z,7.30
2017-09-11T06:39:52.806Z,7.37
2017-09-11T06:42:20.181Z,6.87
2017-09-11T06:44:47.570Z,7.40
2017-09-11T06:47:14.962Z,6.73
2017-09-11T06:49:42.341Z,7.70
2017-09-11T06:52:10.158Z,7.83
2017-09-11T06:54:37.539Z,6.90
2017-09-11T06:57:04.924Z,7.90
2017-09-11T06:59:32.302Z,7.30
2017-09-11T07:01:59.686Z,7.70
2017-09-11T07:04:27.103Z,7.70
2017-09-11T07:06:54.483Z,7.60
2017-09-11T07:09:21.874Z,7.80
2017-09-11T07:11:49.269Z,7.63
2017-09-11T07:14:16.650Z,8.40
2017-09-11T07:16:44.049Z,9.03
2017-09-11T07:19:11.430Z,7.93
2017-09-11T07:21:38.922Z,8.00
2017-09-11T07:24:06.314Z,8.43
2017-09-11T07:26:33.694Z,8.03
2017-09-11T07:29:01.086Z,7.70
2017-09-11T07:31:28.471Z,8.53
2017-09-11T07:33:56.014Z,8.47
2017-09-11T07:36:23.394Z,7.50
2017-09-11T07:38:50.774Z,7.50
2017-09-11T07:41:18.171Z,7.97
2017-09-11T07:43:45.551Z,7.50
2017-09-11T07:46:13.086Z,8.63
2017-09-11T07:48:40.472Z,8.23
2017-09-11T07:51:07.858Z,8.17
2017-09-11T07:53:35.247Z,8.70
2017-09-11T07:56:02.638Z,8.10
2017-09-11T07:58:30.183Z,7.57
2017-09-11T08:00:57.570Z,7.30
2017-09-11T08:03:24.963Z,8.03
2017-09-11T08:05:52.359Z,8.30
2017-09-11T08:08:19.743Z,7.33
2017-09-11T08:10:47.136Z,7.53
2017-09-11T08:13:14.788Z,8.23
2017-09-11T08:15:42.171Z,7.97
2017-09-11T08:18:09.555Z,7.43
2017-09-11T08:20:36.965Z,7.20
2017-09-11T08:23:04.349Z,6.93
2017-09-11T08:25:31.730Z,7.10
2017-09-11T08:27:59.226Z,7.13
2017-09-11T08:30:26.609Z,6.60
2017-09-11T08:32:53.990Z,6.90
2017-09-11T08:35:21.395Z,6.73
2017-09-11T08:37:50.695Z,6.10
2017-09-11T08:40:18.087Z,7.50
2017-09-11T08:42:45.580Z,6.50
2017-09-11T08:45:12.972Z,6.60
2017-09-11T08:47:40.350Z,6.60
2017-09-11T08:50:07.859Z,6.20
2017-09-11T08:52:35.238Z,6.60
2017-09-11T08:55:02.626Z,5.93
2017-09-11T08:57:30.178Z,6.37
2017-09-11T08:59:57.583Z,5.87
2017-09-11T09:02:24.976Z,6.60
2017-09-11T09:04:52.370Z,6.20
2017-09-11T09:07:19.763Z,6.37
2017-09-11T09:09:46.793Z,6.57
2017-09-11T09:12:14.178Z,6.40
2017-09-11T09:14:41.571Z,6.57
2017-09-11T09:17:08.967Z,6.17
2017-09-11T09:19:36.347Z,5.97
2017-09-11T09:22:03.771Z,6.07
2017-09-11T09:24:31.154Z,5.63
2017-09-11T09:26:58.536Z,6.03
2017-09-11T09:29:25.926Z,6.37
2017-09-11T09:31:53.320Z,6.00
2017-09-11T09:34:21.119Z,5.60
2017-09-11T09:36:48.502Z,5.70
2017-09-11T09:39:15.895Z,6.53
2017-09-11T09:41:43.279Z,6.07
2017-09-11T09:44:10.667Z,5.47
2017-09-11T09:46:38.059Z,5.77
2017-09-11T09:49:05.448Z,6.00
2017-09-11T09:51:32.833Z,6.30
2017-09-11T09:54:00.230Z,6.53
2017-09-11T09:56:27.614Z,5.70
2017-09-11T09:58:55.155Z,6.83
2017-09-11T10:01:22.539Z,6.13
2017-09-11T10:03:49.930Z,6.03
2017-09-11T10:06:17.322Z,6.30
2017-09-11T10:08:44.711Z,5.83
2017-09-11T10:11:12.118Z,6.17
2017-09-11T10:13:39.502Z,5.97
2017-09-11T10:16:06.893Z,5.90
2017-09-11T10:18:34.293Z,5.33
2017-09-11T10:21:01.666Z,5.67
2017-09-11T10:23:29.202Z,6.57
2017-09-11T10:25:56.590Z,5.37
2017-09-11T10:29:00.118Z,5.93
2017-09-11T10:31:27.506Z,5.77
2017-09-11T10:33:55.038Z,6.53
2017-09-11T10:36:22.419Z,5.33
2017-09-11T10:38:49.802Z,4.97
2017-09-11T10:41:17.200Z,5.40
2017-09-11T10:43:44.588Z,5.20
2017-09-11T10:46:12.139Z,5.43
2017-09-11T10:48:39.528Z,6.00
2017-09-11T10:51:06.913Z,5.13
2017-09-11T10:53:34.300Z,4.90
2017-09-11T10:56:01.682Z,5.30
2017-09-11T10:58:29.443Z,5.60
2017-09-11T11:00:56.832Z,6.10
2017-09-11T11:03:24.214Z,6.63
2017-09-11T11:05:52.061Z,5.53
2017-09-11T11:08:19.439Z,5.83
2017-09-11T11:10:46.976Z,6.30
2017-09-11T11:13:14.364Z,7.10
2017-09-11T11:15:41.750Z,6.40
2017-09-11T11:18:09.150Z,6.33
2017-09-11T11:20:36.530Z,6.07
2017-09-11T11:23:03.912Z,5.63
2017-09-11T11:25:31.299Z,5.77
2017-09-11T11:27:58.687Z,6.10
2017-09-11T11:30:26.070Z,5.70
2017-09-11T11:32:53.459Z,6.33
2017-09-11T11:35:20.842Z,6.93
2017-09-11T11:37:48.386Z,5.50
2017-09-11T11:40:15.771Z,6.37
2017-09-11T11:42:43.155Z,6.27
2017-09-11T11:45:10.571Z,6.10
2017-09-11T11:47:37.958Z,6.20
2017-09-11T11:50:05.356Z,6.23
2017-09-11T11:52:32.738Z,5.93
2017-09-11T11:55:00.128Z,5.70
2017-09-11T11:57:27.618Z,5.27
2017-09-11T11:59:55.006Z,5.20
2017-09-11T12:02:22.398Z,5.70
2017-09-11T12:04:49.781Z,6.47
2017-09-11T12:07:17.170Z,5.50
2017-09-11T12:09:47.435Z,5.87
2017-09-11T12:12:14.828Z,6.37
2017-09-11T12:14:42.219Z,6.67
2017-09-11T12:17:09.607Z,5.53
2017-09-11T12:19:36.999Z,5.43
2017-09-11T12:22:04.549Z,5.50
2017-09-11T12:24:31.926Z,5.00
2017-09-11T12:26:59.321Z,5.00
2017-09-11T12:29:26.710Z,5.50
2017-09-11T12:31:54.102Z,6.43
2017-09-11T12:34:21.967Z,5.60
2017-09-11T12:36:49.347Z,6.00
2017-09-11T12:39:16.731Z,6.17
2017-09-11T12:41:44.114Z,6.67
2017-09-11T12:44:11.494Z,6.90
2017-09-11T12:46:39.029Z,6.37
2017-09-11T12:49:06.412Z,6.30
2017-09-11T12:51:33.802Z,5.77
2017-09-11T12:54:01.194Z,6.70
2017-09-11T12:56:28.579Z,6.30
2017-09-11T12:58:56.119Z,6.90
2017-09-11T13:01:23.508Z,6.90
2017-09-11T13:03:50.886Z,6.90
2017-09-11T13:06:18.270Z,6.30
2017-09-11T13:08:45.655Z,7.00
2017-09-11T13:11:13.411Z,6.77
2017-09-11T13:13:40.790Z,6.63
2017-09-11T13:16:08.182Z,6.17
2017-09-11T13:18:35.579Z,6.90
2017-09-11T13:21:02.955Z,6.13
2017-09-11T13:23:30.370Z,6.70
2017-09-11T13:25:57.751Z,5.93
2017-09-11T13:28:25.140Z,6.30
2017-09-11T13:30:52.532Z,5.43
2017-09-11T13:33:19.911Z,6.20
2017-09-11T13:35:47.457Z,6.10
2017-09-11T13:38:14.855Z,6.40
2017-09-11T13:40:42.238Z,6.17
2017-09-11T13:43:09.631Z,6.30
2017-09-11T13:45:37.027Z,5.80
2017-09-11T13:48:04.527Z,5.77
2017-09-11T13:50:31.922Z,5.50
2017-09-11T13:52:59.304Z,5.63
2017-09-11T13:55:26.694Z,6.00
2017-09-11T13:57:54.081Z,5.77
2017-09-11T14:00:21.498Z,7.03
2017-09-11T14:02:48.882Z,6.73
2017-09-11T14:05:16.307Z,7.03
2017-09-11T14:07:43.704Z,6.73
2017-09-11T14:10:11.124Z,6.33
2017-09-11T14:12:38.701Z,6.63
2017-09-11T14:15:06.082Z,6.63
2017-09-11T14:17:33.474Z,6.87
2017-09-11T14:20:00.862Z,7.50
2017-09-11T14:22:28.252Z,7.47
2017-09-11T14:24:55.674Z,6.90
2017-09-11T14:27:23.066Z,6.50
2017-09-11T14:29:50.450Z,6.00
2017-09-11T14:32:17.843Z,6.50
2017-09-11T14:34:45.628Z,6.50
2017-09-11T14:37:13.111Z,6.30
2017-09-11T14:39:40.494Z,5.93
2017-09-11T14:42:08.002Z,6.17
2017-09-11T14:44:35.386Z,6.30
2017-09-11T14:47:02.783Z,5.90
2017-09-11T14:49:30.163Z,6.13
2017-09-11T14:51:57.598Z,6.00
2017-09-11T14:54:25.059Z,5.60
2017-09-11T14:56:52.438Z,5.83
2017-09-11T15:01:49.843Z,5.47
2017-09-11T15:04:17.236Z,6.20
2017-09-11T15:06:44.613Z,6.27
2017-09-11T15:09:12.107Z,6.77
2017-09-11T15:11:39.491Z,5.53
2017-09-11T15:14:06.892Z,5.20
2017-09-11T15:16:34.295Z,6.10
2017-09-11T15:19:01.687Z,5.27
2017-09-11T15:21:29.079Z,5.50
2017-09-11T15:23:56.514Z,5.37
2017-09-11T15:26:23.902Z,5.37
2017-09-11T15:28:51.310Z,5.43
2017-09-11T15:31:18.695Z,5.57
2017-09-11T15:33:46.101Z,5.80
2017-09-11T15:36:13.478Z,5.83
2017-09-11T15:38:40.872Z,5.80
2017-09-11T15:41:08.408Z,4.80
2017-09-11T15:43:35.794Z,5.37
2017-09-11T15:46:03.177Z,5.83
2017-09-11T15:48:30.591Z,5.70
2017-09-11T15:50:57.974Z,5.50
2017-09-11T15:53:25.382Z,6.60
2017-09-11T15:55:52.775Z,5.40
2017-09-11T15:58:20.158Z,5.30
2017-09-11T16:00:47.766Z,6.40
2017-09-11T16:03:15.151Z,5.80
2017-09-11T16:05:42.536Z,5.47
2017-09-11T16:08:09.923Z,6.17
2017-09-11T16:10:47.356Z,6.53
2017-09-11T16:13:14.849Z,6.00
2017-09-11T16:15:42.226Z,6.13
2017-09-11T16:18:09.613Z,6.73
2017-09-11T16:20:37.046Z,6.07
2017-09-11T16:23:04.428Z,5.60
2017-09-11T16:25:31.844Z,5.73
2017-09-11T16:27:59.235Z,6.17
2017-09-11T16:30:26.618Z,6.27
2017-09-11T16:32:54.166Z,5.80
2017-09-11T16:35:21.552Z,6.40
2017-09-11T16:37:48.943Z,5.13
2017-09-11T16:40:16.335Z,5.30
2017-09-11T16:42:43.718Z,5.57
2017-09-11T16:45:11.104Z,5.97
2017-09-11T16:47:38.503Z,5.67
2017-09-11T16:50:05.905Z,5.77
2017-09-11T16:52:33.354Z,6.27
2017-09-11T16:55:03.124Z,5.73
2017-09-11T16:57:30.529Z,6.20
2017-09-11T16:59:57.933Z,5.83
2017-09-11T17:02:25.322Z,6.63
2017-09-11T17:04:52.714Z,6.10
2017-09-11T17:07:20.162Z,5.50
2017-09-11T17:09:47.567Z,6.20
2017-09-11T17:12:14.976Z,6.13
2017-09-11T17:14:42.371Z,5.53
2017-09-11T17:17:09.755Z,6.17
2017-09-11T17:19:37.173Z,6.53
2017-09-11T17:22:04.558Z,6.10
2017-09-11T17:24:31.939Z,5.73
2017-09-11T17:26:59.334Z,5.43
2017-09-11T17:29:26.719Z,6.00
2017-09-11T17:31:54.094Z,5.77
2017-09-11T17:34:21.899Z,6.20
2017-09-11T17:36:49.285Z,6.37
2017-09-11T17:39:16.677Z,6.13
2017-09-11T17:41:44.070Z,5.83
2017-09-11T17:44:11.457Z,6.30
2017-09-11T17:46:38.834Z,5.80
2017-09-11T17:49:06.246Z,5.83
2017-09-11T17:51:33.636Z,5.40
2017-09-11T17:54:01.010Z,5.90
2017-09-11T17:56:28.402Z,7.10
2017-09-11T17:58:55.785Z,5.70
2017-09-11T18:01:23.527Z,6.30
2017-09-11T18:03:50.911Z,5.40
2017-09-11T18:06:18.291Z,6.70
2017-09-11T18:08:45.679Z,6.03
2017-09-11T18:11:13.062Z,6.30
2017-09-11T18:13:40.806Z,5.50
2017-09-11T18:16:08.187Z,6.50
2017-09-11T18:18:35.571Z,5.73
2017-09-11T18:21:02.958Z,5.93
2017-09-11T18:23:30.339Z,5.77
2017-09-11T18:25:57.872Z,5.90
2017-09-11T18:28:25.250Z,5.50
2017-09-11T18:30:52.630Z,5.33
2017-09-11T18:33:20.022Z,5.77
2017-09-11T18:35:47.406Z,5.70
2017-09-11T18:38:15.184Z,5.43
2017-09-11T18:40:42.564Z,5.67
2017-09-11T18:43:09.951Z,5.67
2017-09-11T18:45:37.347Z,5.43
2017-09-11T18:48:04.727Z,6.00
2017-09-11T18:50:32.273Z,5.70
2017-09-11T18:52:59.648Z,5.57
2017-09-11T18:55:27.030Z,6.30
2017-09-11T18:57:54.424Z,6.10
2017-09-11T19:00:21.808Z,5.97
2017-09-11T19:02:49.213Z,5.33
2017-09-11T19:05:16.591Z,6.20
2017-09-11T19:07:43.974Z,5.43
2017-09-11T19:10:11.407Z,5.93
2017-09-11T19:12:38.791Z,6.57
2017-09-11T19:15:06.634Z,6.50
2017-09-11T19:17:34.015Z,6.60
2017-09-11T19:20:01.408Z,6.70
2017-09-11T19:22:28.793Z,5.93
2017-09-11T19:24:56.179Z,6.40
2017-09-11T19:27:23.607Z,6.70
2017-09-11T19:29:50.993Z,6.13
2017-09-11T19:32:18.382Z,7.20
2017-09-11T19:34:45.768Z,6.77
2017-09-11T19:37:13.154Z,6.50
2017-09-11T19:39:40.697Z,6.97
2017-09-11T19:42:08.086Z,7.50
2017-09-11T19:44:35.471Z,6.70
2017-09-11T19:47:02.868Z,6.90
2017-09-11T19:49:30.242Z,7.13
2017-09-11T19:51:57.738Z,6.73
2017-09-11T19:54:25.118Z,7.03
2017-09-11T19:56:52.514Z,7.00
2017-09-11T19:59:19.922Z,6.87
2017-09-11T20:01:47.322Z,7.43
2017-09-11T20:04:14.865Z,7.17
2017-09-11T20:06:42.247Z,7.10
2017-09-11T20:09:09.626Z,6.90
2017-09-11T20:11:37.014Z,7.43
2017-09-11T20:14:04.416Z,7.63
2017-09-11T20:16:31.943Z,7.40
2017-09-11T20:18:59.340Z,7.00
2017-09-11T20:21:26.722Z,7.17
2017-09-11T20:23:54.115Z,7.40
2017-09-11T20:26:21.492Z,7.10
2017-09-11T20:28:49.036Z,7.83
2017-09-11T20:31:16.419Z,8.63
2017-09-11T20:33:43.818Z,7.23
2017-09-11T20:36:11.210Z,8.03
2017-09-11T20:38:38.599Z,8.03
2017-09-11T20:41:06.000Z,7.40
2017-09-11T20:43:33.374Z,8.77
2017-09-11T20:46:00.763Z,7.70
2017-09-11T20:48:28.147Z,7.63
2017-09-11T20:50:55.531Z,8.00
2017-09-11T20:53:23.066Z,7.70
2017-09-11T20:55:50.451Z,8.07
2017-09-11T20:58:17.846Z,7.97
2017-09-11T21:00:45.238Z,8.00
2017-09-11T21:03:12.623Z,8.63
2017-09-11T21:05:40.163Z,8.30
2017-09-11T21:08:07.543Z,7.90
2017-09-11T21:10:34.969Z,8.77
2017-09-11T21:13:02.323Z,9.30
2017-09-11T21:15:29.706Z,9.63
2017-09-11T21:17:57.250Z,8.30
2017-09-11T21:20:24.634Z,8.40
2017-09-11T21:22:52.018Z,8.10
2017-09-11T21:25:19.411Z,8.80
2017-09-11T21:27:46.802Z,8.67
2017-09-11T21:30:14.339Z,8.63
2017-09-11T21:32:41.719Z,8.10
2017-09-11T21:35:09.111Z,8.67
2017-09-11T21:37:36.495Z,8.00
2017-09-11T21:40:03.883Z,7.50
2017-09-11T21:42:31.330Z,8.10
2017-09-11T21:44:58.702Z,8.87
2017-09-11T21:47:26.087Z,8.63
2017-09-11T21:49:53.485Z,9.03
2017-09-11T21:52:20.864Z,8.63
2017-09-11T21:54:48.554Z,8.50
2017-09-11T21:57:15.937Z,7.83
2017-09-11T21:59:43.331Z,8.57
2017-09-11T22:02:10.727Z,8.00
2017-09-11T22:04:38.113Z,7.60
2017-09-11T22:07:05.804Z,8.27
2017-09-11T22:09:33.195Z,7.83
2017-09-11T22:12:00.580Z,8.07
2017-09-11T22:14:27.972Z,8.43
2017-09-11T22:16:55.360Z,7.70
2017-09-11T22:19:22.893Z,8.57
2017-09-11T22:21:50.271Z,7.87
2017-09-11T22:24:17.654Z,8.03
2017-09-11T22:26:45.051Z,8.40
2017-09-11T22:29:12.447Z,8.20
2017-09-11T22:31:39.978Z,7.80
2017-09-11T22:34:07.364Z,8.20
2017-09-11T22:36:34.751Z,7.80
2017-09-11T22:39:02.147Z,7.90
2017-09-11T22:41:29.534Z,8.40
2017-09-11T22:43:57.098Z,8.53
2017-09-11T22:46:24.475Z,8.50
2017-09-11T22:48:51.867Z,9.67
2017-09-11T22:51:19.256Z,9.17
2017-09-11T22:53:46.642Z,8.00
2017-09-11T22:56:14.200Z,8.37
2017-09-11T22:58:41.587Z,9.13
2017-09-11T23:01:08.965Z,8.20
2017-09-11T23:03:36.350Z,8.30
2017-09-11T23:06:03.742Z,8.63
2017-09-11T23:08:31.159Z,8.40
2017-09-11T23:10:58.538Z,8.10
2017-09-11T23:13:25.920Z,8.67
2017-09-11T23:15:53.315Z,8.03
2017-09-11T23:18:20.718Z,8.37
2017-09-11T23:20:48.230Z,8.80
2017-09-11T23:23:15.603Z,8.27
2017-09-11T23:25:42.983Z,8.57
2017-09-11T23:28:10.385Z,8.03
2017-09-11T23:30:37.762Z,8.37
2017-09-11T23:33:05.303Z,7.97
2017-09-11T23:35:32.683Z,8.00
2017-09-11T23:38:00.073Z,8.40
2017-09-11T23:40:27.474Z,8.00
2017-09-11T23:42:54.870Z,8.30
2017-09-11T23:45:22.269Z,8.33
2017-09-11T23:47:49.646Z,8.70
2017-09-11T23:50:17.030Z,8.53
2017-09-11T23:52:44.419Z,8.17
2017-09-11T23:55:11.814Z,8.03
2017-09-11T23:57:39.550Z,8.03
